»·PEaware :: XSR621 KBOI-KBZN

XSR621 :: KBOI-KBZN

FLIGHT INFORMATION

Flight Status: Arrived
Operator: Unknown
More flights by this operator :: More flights under this callsign
Pilot: Tanner C. (11250)
Aircraft: Unknown
(E50P)
More flights by this aircraft type
Origin: KBOI Boise Air Terminal/Gowen
United States
Destination: KBZN Gallatin
United States
More flights between these airports :: More routes between these airports
Route: +BOI3 BOI DLN JOXIT
File this flight plan on PilotEdge
Remarks:
Altitude:
(Current/Filed)
30,000ft
Speed:
(Current/Filed)
400kts
Departed: 10-Jul-18 06:16 PM
Arrived: 10-Jul-18 07:15 PM
Distance/Time
Traveled:
254nm/0:59
Distance/Time
To Go:
Arrived

Flight Plot

Page will automatically refresh every two minutes.

Flight plan parsing failed; only flown route is shown


Map Options




Map Legend


Flown Route
Filed Route
Departure Airport
Arrival Airport
Navaid (VOR, NDB)
Fix

Horizontal Profiles

Position Reports

Time Latitude Longitude Heading Altitude Ground
Speed
10-Jul-18 18:02 43.564635 -116.210944 267 2862ft 0kts
10-Jul-18 18:03 43.564635 -116.210944 267 2862ft 0kts
10-Jul-18 18:04 43.564635 -116.210944 267 2862ft 0kts
10-Jul-18 18:05 43.564635 -116.210944 267 2862ft 0kts
10-Jul-18 18:06 43.564635 -116.210944 267 2862ft 0kts
10-Jul-18 18:07 43.564635 -116.210944 267 2862ft 0kts
10-Jul-18 18:08 43.564635 -116.210944 267 2862ft 0kts
10-Jul-18 18:09 43.564635 -116.210944 267 2862ft 0kts
10-Jul-18 18:10 43.564635 -116.210944 267 2862ft 0kts
10-Jul-18 18:11 43.564635 -116.210944 267 2862ft 0kts
10-Jul-18 18:12 43.564635 -116.210944 267 2862ft 0kts
10-Jul-18 18:13 43.564305 -116.212810 188 2859ft 14kts
10-Jul-18 18:14 43.561203 -116.207123 116 2866ft 28kts
10-Jul-18 18:15 43.559193 -116.203002 213 2868ft 0kts
10-Jul-18 18:16 43.559125 -116.203078 218 2868ft 0kts
10-Jul-18 18:17 43.566059 -116.226015 296 3582ft 143kts
10-Jul-18 18:18 43.583874 -116.284093 293 6461ft 224kts
10-Jul-18 18:19 43.630784 -116.331811 13 10553ft 265kts
10-Jul-18 18:20 43.677135 -116.252828 57 15118ft 301kts
10-Jul-18 18:21 43.723836 -116.149484 57 15974ft 344kts
10-Jul-18 18:22 43.774314 -116.037162 57 18159ft 355kts
10-Jul-18 18:23 43.826064 -115.921788 58 21471ft 371kts
10-Jul-18 18:24 43.868455 -115.826797 59 23916ft 386kts
10-Jul-18 18:25 43.897302 -115.761863 59 25412ft 396kts
10-Jul-18 18:26 43.926785 -115.695382 60 26863ft 403kts
10-Jul-18 18:27 43.976204 -115.583747 60 29102ft 415kts
10-Jul-18 18:28 44.030197 -115.461162 60 30243ft 451kts
10-Jul-18 18:29 44.088045 -115.329405 60 30241ft 458kts
10-Jul-18 18:30 44.136886 -115.217595 60 30234ft 458kts
10-Jul-18 18:31 44.169281 -115.143188 60 30234ft 458kts
10-Jul-18 18:32 44.198063 -115.076962 60 30237ft 458kts
10-Jul-18 18:33 44.229129 -115.005315 60 30235ft 459kts
10-Jul-18 18:34 44.268019 -114.915333 60 30236ft 460kts
10-Jul-18 18:35 44.299231 -114.842916 60 30236ft 460kts
10-Jul-18 18:36 44.330042 -114.771254 60 30237ft 460kts
10-Jul-18 18:37 44.363023 -114.694344 60 30237ft 461kts
10-Jul-18 18:38 44.393505 -114.623057 60 30237ft 461kts
10-Jul-18 18:39 44.424531 -114.550350 60 30220ft 462kts
10-Jul-18 18:40 44.474916 -114.431858 60 30145ft 463kts
10-Jul-18 18:41 44.532426 -114.296033 61 30078ft 460kts
10-Jul-18 18:42 44.593446 -114.151130 61 30076ft 456kts
10-Jul-18 18:43 44.651570 -114.012505 61 30075ft 432kts
10-Jul-18 18:44 44.709612 -113.873326 61 30024ft 426kts
10-Jul-18 18:45 44.768708 -113.730899 61 30024ft 436kts
10-Jul-18 18:46 44.827762 -113.587896 61 30024ft 435kts
10-Jul-18 18:47 44.886156 -113.445734 61 30025ft 434kts
10-Jul-18 18:48 44.929880 -113.338865 62 30025ft 434kts
10-Jul-18 18:49 44.977351 -113.222401 62 30024ft 434kts
10-Jul-18 18:50 45.015324 -113.128830 62 30043ft 433kts
10-Jul-18 18:51 45.048043 -113.047962 62 30051ft 433kts
10-Jul-18 18:52 45.103510 -112.910289 62 29843ft 430kts
10-Jul-18 18:53 45.149619 -112.795344 62 28323ft 422kts
10-Jul-18 18:54 45.204021 -112.659236 61 26621ft 412kts
10-Jul-18 18:55 45.252368 -112.527018 77 24574ft 371kts
10-Jul-18 18:56 45.273979 -112.399801 79 24048ft 326kts
10-Jul-18 18:57 45.292162 -112.292820 80 23725ft 334kts
10-Jul-18 18:58 45.313018 -112.169464 79 22633ft 360kts
10-Jul-18 18:59 45.335529 -112.034666 76 21180ft 379kts
10-Jul-18 19:00 45.356023 -111.913425 77 19183ft 334kts
10-Jul-18 19:01 45.374399 -111.802854 77 17104ft 301kts
10-Jul-18 19:02 45.391394 -111.699774 77 15395ft 268kts
10-Jul-18 19:03 45.405998 -111.610789 78 14526ft 228kts
10-Jul-18 19:04 45.418381 -111.533574 75 13985ft 199kts
10-Jul-18 19:05 45.430968 -111.456565 74 13976ft 226kts
10-Jul-18 19:06 45.449740 -111.375091 35 13972ft 232kts
10-Jul-18 19:07 45.500509 -111.337011 20 13159ft 253kts
10-Jul-18 19:08 45.559792 -111.298961 22 12241ft 235kts
10-Jul-18 19:09 45.612393 -111.259767 52 11181ft 220kts
10-Jul-18 19:10 45.635699 -111.183421 66 9471ft 225kts
10-Jul-18 19:11 45.649585 -111.103601 58 7541ft 206kts
10-Jul-18 19:12 45.682184 -111.069777 2 6961ft 134kts
10-Jul-18 19:13 45.716334 -111.075397 337 6849ft 138kts
10-Jul-18 19:14 45.744128 -111.105539 315 5724ft 125kts
10-Jul-18 19:15 45.767421 -111.137833 315 4649ft 122kts
10-Jul-18 19:16 45.780777 -111.156292 317 4451ft 29kts
10-Jul-18 19:17 45.782943 -111.161736 222 4446ft 4kts
10-Jul-18 19:18 45.782848 -111.161853 222 4447ft 0kts
10-Jul-18 19:19 45.782848 -111.161853 222 4447ft 0kts
10-Jul-18 19:20 45.782848 -111.161853 222 4447ft 0kts

Navigation Log

Ident Type
Flight plan parsing failed, navigation log unavailable